createdAt,value
2022-10-06T00:01:35.260Z,15.52
2022-10-06T00:04:58.174Z,15.50
2022-10-06T00:08:20.347Z,15.57
2022-10-06T00:11:42.117Z,15.57
2022-10-06T00:15:03.233Z,15.60
2022-10-06T00:18:25.105Z,15.58
2022-10-06T00:21:48.202Z,15.60
2022-10-06T00:25:11.279Z,15.63
2022-10-06T00:28:33.352Z,15.65
2022-10-06T00:31:55.495Z,15.66
2022-10-06T00:35:17.513Z,15.66
2022-10-06T00:38:40.495Z,15.66
2022-10-06T00:42:05.617Z,15.64
2022-10-06T00:45:32.662Z,15.64
2022-10-06T00:48:59.744Z,15.65
2022-10-06T00:52:26.454Z,15.66
2022-10-06T00:55:49.812Z,15.65
2022-10-06T00:59:13.760Z,15.65
2022-10-06T01:02:40.277Z,15.66
2022-10-06T01:06:03.635Z,15.67
2022-10-06T01:09:25.877Z,15.62
2022-10-06T01:12:49.156Z,15.58
2022-10-06T01:16:17.805Z,15.59
2022-10-06T01:19:49.182Z,15.59
2022-10-06T01:23:13.182Z,15.60
2022-10-06T01:26:39.257Z,15.59
2022-10-06T01:30:01.690Z,15.60
2022-10-06T01:33:24.716Z,15.59
2022-10-06T01:36:47.267Z,15.61
2022-10-06T01:40:11.491Z,15.64
2022-10-06T01:43:33.264Z,15.65
2022-10-06T01:46:55.002Z,15.64
2022-10-06T01:50:17.129Z,15.67
2022-10-06T01:53:38.587Z,15.70
2022-10-06T01:57:01.297Z,15.71
2022-10-06T02:00:23.139Z,15.74
2022-10-06T02:03:45.058Z,15.75
2022-10-06T02:07:07.029Z,15.77
2022-10-06T02:10:36.716Z,15.78
2022-10-06T02:14:02.587Z,15.78
2022-10-06T02:17:25.536Z,15.78
2022-10-06T02:20:47.739Z,15.76
2022-10-06T02:24:09.344Z,15.76
2022-10-06T02:27:31.658Z,15.74
2022-10-06T02:30:55.545Z,15.74
2022-10-06T02:34:17.398Z,15.69
2022-10-06T02:37:40.025Z,15.74
2022-10-06T02:41:02.645Z,15.76
2022-10-06T02:44:25.288Z,15.74
2022-10-06T02:47:50.573Z,15.72
2022-10-06T02:51:13.689Z,15.70
2022-10-06T02:54:37.471Z,15.72
2022-10-06T02:57:58.717Z,15.71
2022-10-06T03:01:24.000Z,15.71
2022-10-06T03:04:48.316Z,15.71
2022-10-06T03:08:11.550Z,15.72
2022-10-06T03:11:35.438Z,15.73
2022-10-06T03:14:57.969Z,15.76
2022-10-06T03:18:19.757Z,15.77
2022-10-06T03:21:44.575Z,15.78
2022-10-06T03:25:08.977Z,15.77
2022-10-06T03:28:31.574Z,15.82
2022-10-06T03:31:53.687Z,15.84
2022-10-06T03:35:15.584Z,15.87
2022-10-06T03:38:39.403Z,15.88
2022-10-06T03:42:01.223Z,15.91
2022-10-06T03:45:22.899Z,15.93
2022-10-06T03:48:45.448Z,15.94
2022-10-06T03:52:07.169Z,15.93
2022-10-06T03:55:33.173Z,15.89
2022-10-06T03:58:56.571Z,15.83
2022-10-06T04:02:18.386Z,15.77
2022-10-06T04:05:41.026Z,15.69
2022-10-06T04:09:03.544Z,15.68
2022-10-06T04:12:27.002Z,15.65
2022-10-06T04:15:49.849Z,15.52
2022-10-06T04:19:13.757Z,15.51
2022-10-06T04:22:38.863Z,15.47
2022-10-06T04:26:02.741Z,15.37
2022-10-06T04:29:25.961Z,15.39
2022-10-06T04:32:51.047Z,15.34
2022-10-06T04:36:15.670Z,15.32
2022-10-06T04:39:37.876Z,15.35
2022-10-06T04:43:00.388Z,15.30
2022-10-06T04:46:42.034Z,15.31
2022-10-06T04:50:05.205Z,15.31
2022-10-06T04:53:27.456Z,15.29
2022-10-06T04:56:51.718Z,15.27
2022-10-06T05:00:26.769Z,15.22
2022-10-06T05:03:52.361Z,15.18
2022-10-06T05:07:13.852Z,15.18
2022-10-06T05:10:35.839Z,15.15
2022-10-06T05:13:59.517Z,15.15
2022-10-06T05:17:23.314Z,15.17
2022-10-06T05:20:56.351Z,15.15
2022-10-06T05:24:17.978Z,15.15
2022-10-06T05:27:39.731Z,15.13
2022-10-06T05:31:05.317Z,15.07
2022-10-06T05:34:28.267Z,15.10
2022-10-06T05:37:52.009Z,15.02
2022-10-06T05:41:15.773Z,14.84
2022-10-06T05:44:37.951Z,14.81
2022-10-06T05:48:04.450Z,14.70
2022-10-06T05:51:31.027Z,14.71
2022-10-06T05:54:55.109Z,14.72
2022-10-06T05:58:18.564Z,14.69
2022-10-06T06:01:42.237Z,14.68
2022-10-06T06:05:30.078Z,14.67
2022-10-06T06:08:54.901Z,14.68
2022-10-06T06:12:18.187Z,14.68
2022-10-06T06:16:05.981Z,14.69
2022-10-06T06:19:29.271Z,14.67
2022-10-06T06:22:53.382Z,14.70
2022-10-06T06:26:19.485Z,14.72
2022-10-06T06:29:45.685Z,14.68
2022-10-06T06:33:07.431Z,14.64
2022-10-06T06:36:32.610Z,14.69
2022-10-06T06:39:54.063Z,14.69
2022-10-06T06:43:16.479Z,14.66
2022-10-06T06:47:09.656Z,14.54
2022-10-06T06:50:31.574Z,14.53
2022-10-06T06:53:54.400Z,14.50
2022-10-06T06:57:16.543Z,14.46
2022-10-06T07:00:38.669Z,14.48
2022-10-06T07:04:02.375Z,14.52
2022-10-06T07:07:27.858Z,14.49
2022-10-06T07:10:49.821Z,14.47
2022-10-06T07:14:12.928Z,14.55
2022-10-06T07:17:55.175Z,14.58
2022-10-06T07:21:36.967Z,14.54
2022-10-06T07:25:20.458Z,14.56
2022-10-06T07:28:49.487Z,14.56
2022-10-06T07:32:12.113Z,14.55
2022-10-06T07:35:33.892Z,14.52
2022-10-06T07:38:57.541Z,14.53
2022-10-06T07:42:19.362Z,14.59
2022-10-06T07:45:42.150Z,14.65
2022-10-06T07:49:10.039Z,14.63
2022-10-06T07:52:32.475Z,14.65
2022-10-06T07:55:55.567Z,14.62
2022-10-06T07:59:22.185Z,14.65
2022-10-06T08:02:44.386Z,14.69
2022-10-06T08:06:06.333Z,14.77
2022-10-06T08:09:27.790Z,14.76
2022-10-06T08:12:51.022Z,14.72
2022-10-06T08:16:14.858Z,14.72
2022-10-06T08:19:36.332Z,14.85
2022-10-06T08:22:58.273Z,14.96
2022-10-06T08:26:21.734Z,14.92
2022-10-06T08:29:44.554Z,14.87
2022-10-06T08:33:06.907Z,14.88
2022-10-06T08:36:32.085Z,14.89
2022-10-06T08:39:55.157Z,14.88
2022-10-06T08:43:20.614Z,15.02
2022-10-06T08:46:50.165Z,15.01
2022-10-06T08:50:13.250Z,14.99
2022-10-06T08:53:46.709Z,15.03
2022-10-06T08:57:17.704Z,14.95
2022-10-06T09:00:39.457Z,14.93
2022-10-06T09:04:07.205Z,15.01
2022-10-06T09:07:35.836Z,15.02
2022-10-06T09:11:10.383Z,15.00
2022-10-06T09:14:37.595Z,14.99
2022-10-06T09:18:03.052Z,15.01
2022-10-06T09:21:31.553Z,15.06
2022-10-06T09:24:57.521Z,15.10
2022-10-06T09:28:19.440Z,15.12
2022-10-06T09:31:43.302Z,15.11
2022-10-06T09:35:18.547Z,15.11
2022-10-06T09:38:54.294Z,15.08
2022-10-06T09:42:20.336Z,15.13
2022-10-06T09:45:42.647Z,15.16
2022-10-06T09:49:16.505Z,15.19
2022-10-06T09:52:38.137Z,15.25
2022-10-06T09:56:05.069Z,15.30
2022-10-06T09:59:39.168Z,15.32
2022-10-06T10:03:04.114Z,15.37
2022-10-06T10:06:28.668Z,15.40
2022-10-06T10:09:50.161Z,15.42
2022-10-06T10:13:22.116Z,15.46
2022-10-06T10:16:44.266Z,15.47
2022-10-06T10:20:20.783Z,15.42
2022-10-06T10:23:55.294Z,15.43
2022-10-06T10:27:21.678Z,15.47
2022-10-06T10:30:54.961Z,15.45
2022-10-06T10:34:30.430Z,15.49
2022-10-06T10:37:58.795Z,15.49
2022-10-06T10:41:25.503Z,15.46
2022-10-06T10:44:52.718Z,15.51
2022-10-06T10:48:20.424Z,15.52
2022-10-06T10:51:49.893Z,15.61
2022-10-06T10:55:23.262Z,15.74
2022-10-06T10:58:46.876Z,15.79
2022-10-06T11:02:16.741Z,15.81
2022-10-06T11:05:57.218Z,15.87
2022-10-06T11:09:21.410Z,15.86
2022-10-06T11:13:10.610Z,15.85
2022-10-06T11:16:41.260Z,15.95
2022-10-06T11:20:10.620Z,16.00
2022-10-06T11:23:47.057Z,16.00
2022-10-06T11:27:24.004Z,16.04
2022-10-06T11:30:58.079Z,16.06
2022-10-06T11:34:19.748Z,16.10
2022-10-06T11:37:47.830Z,16.21
2022-10-06T11:41:19.559Z,16.30
2022-10-06T11:44:46.457Z,16.40
2022-10-06T11:48:29.158Z,16.44
2022-10-06T11:51:50.733Z,16.50
2022-10-06T11:55:18.610Z,16.52
2022-10-06T11:59:10.275Z,16.59
2022-10-06T12:02:38.613Z,16.62
2022-10-06T12:06:02.655Z,16.68
2022-10-06T12:09:44.811Z,16.69
2022-10-06T12:13:51.313Z,16.63
2022-10-06T12:17:18.345Z,16.63
2022-10-06T12:20:53.341Z,16.63
2022-10-06T12:24:26.685Z,16.60
2022-10-06T12:28:04.210Z,16.69
2022-10-06T12:31:41.329Z,16.79
2022-10-06T12:35:23.840Z,16.87
2022-10-06T12:39:01.374Z,16.88
2022-10-06T12:42:31.215Z,16.83
2022-10-06T12:45:58.919Z,16.92
2022-10-06T12:49:42.744Z,16.88
2022-10-06T12:53:12.910Z,16.90
2022-10-06T12:56:36.504Z,16.87
2022-10-06T12:59:58.138Z,16.90
2022-10-06T13:03:26.397Z,16.90
2022-10-06T13:06:50.572Z,16.93
2022-10-06T13:10:20.215Z,16.92
2022-10-06T13:13:48.588Z,16.80
2022-10-06T13:17:10.733Z,16.79
2022-10-06T13:20:39.611Z,16.85
2022-10-06T13:24:01.009Z,16.91
2022-10-06T13:27:24.199Z,16.95
2022-10-06T13:30:51.519Z,16.98
2022-10-06T13:34:15.094Z,16.93
2022-10-06T13:37:37.166Z,16.95
2022-10-06T13:41:07.606Z,16.80
2022-10-06T13:44:36.833Z,16.72
2022-10-06T13:48:07.159Z,16.63
2022-10-06T13:51:31.210Z,16.60
2022-10-06T13:54:55.345Z,16.64
2022-10-06T13:58:19.653Z,16.57
2022-10-06T14:01:43.379Z,16.63
2022-10-06T14:05:27.490Z,16.63
2022-10-06T14:08:52.439Z,16.67
2022-10-06T14:12:16.363Z,16.62
2022-10-06T14:15:46.297Z,16.56
2022-10-06T14:19:32.825Z,16.53
2022-10-06T14:22:54.265Z,16.59
2022-10-06T14:26:17.883Z,16.71
2022-10-06T14:29:41.282Z,16.78
2022-10-06T14:33:02.942Z,16.78
2022-10-06T14:36:28.245Z,16.76
2022-10-06T14:39:51.595Z,16.86
2022-10-06T14:43:13.277Z,16.88
2022-10-06T14:46:34.934Z,16.97
2022-10-06T14:49:56.309Z,16.95
2022-10-06T14:53:18.985Z,17.00
2022-10-06T14:56:42.240Z,17.03
2022-10-06T15:00:05.474Z,17.04
2022-10-06T15:03:27.150Z,17.10
2022-10-06T15:07:06.373Z,17.17
2022-10-06T15:10:30.210Z,17.20
2022-10-06T15:13:53.877Z,17.19
2022-10-06T15:17:15.615Z,17.19
2022-10-06T15:20:38.140Z,17.18
2022-10-06T15:24:01.637Z,17.21
2022-10-06T15:27:42.266Z,17.28
2022-10-06T15:31:03.994Z,17.54
2022-10-06T15:34:27.603Z,17.69
2022-10-06T15:37:49.193Z,17.66
2022-10-06T15:41:11.221Z,17.61
2022-10-06T15:44:34.920Z,17.63
2022-10-06T15:47:56.487Z,17.78
2022-10-06T15:51:18.660Z,17.70
2022-10-06T15:54:41.762Z,17.58
2022-10-06T15:58:03.181Z,17.43
2022-10-06T16:01:36.272Z,17.25
2022-10-06T16:05:18.752Z,17.12
2022-10-06T16:08:40.435Z,17.00
2022-10-06T16:12:03.528Z,16.86
2022-10-06T16:15:25.353Z,16.73
2022-10-06T16:18:48.751Z,16.61
2022-10-06T16:22:13.050Z,16.46
2022-10-06T16:25:34.650Z,16.30
2022-10-06T16:28:56.673Z,16.16
2022-10-06T16:32:18.118Z,16.00
2022-10-06T16:35:40.968Z,15.83
2022-10-06T16:39:02.955Z,15.65
2022-10-06T16:42:25.186Z,15.47
2022-10-06T16:45:59.753Z,15.29
2022-10-06T16:49:24.438Z,15.15
2022-10-06T16:52:47.557Z,14.98
2022-10-06T16:56:13.419Z,14.83
2022-10-06T16:59:35.010Z,14.69
2022-10-06T17:02:56.916Z,14.54
2022-10-06T17:06:19.230Z,14.40
2022-10-06T17:09:56.057Z,14.27
2022-10-06T17:13:23.936Z,14.14
2022-10-06T17:16:47.889Z,14.01
2022-10-06T17:20:10.467Z,13.91
2022-10-06T17:23:32.424Z,13.80
2022-10-06T17:26:55.558Z,13.67
2022-10-06T17:30:17.091Z,13.57
2022-10-06T17:33:40.868Z,13.46
2022-10-06T17:37:03.163Z,13.34
2022-10-06T17:40:26.077Z,13.25
2022-10-06T17:43:50.762Z,13.13
2022-10-06T17:47:12.717Z,13.06
2022-10-06T17:50:34.669Z,12.95
2022-10-06T17:53:58.303Z,12.87
2022-10-06T17:57:20.438Z,12.78
2022-10-06T18:00:43.498Z,12.68
2022-10-06T18:04:06.773Z,12.61
2022-10-06T18:07:28.520Z,12.54
2022-10-06T18:11:08.239Z,12.48
2022-10-06T18:14:33.631Z,12.37
2022-10-06T18:17:56.329Z,12.29
2022-10-06T18:21:18.376Z,12.22
2022-10-06T18:24:41.344Z,12.15
2022-10-06T18:28:03.014Z,12.11
2022-10-06T18:31:24.726Z,12.05
2022-10-06T18:38:31.477Z,11.93
2022-10-06T18:41:53.646Z,11.86
2022-10-06T18:45:36.762Z,11.79
2022-10-06T18:49:05.324Z,11.74
2022-10-06T18:52:28.388Z,11.70
2022-10-06T18:55:49.540Z,11.66
2022-10-06T18:59:13.869Z,11.67
2022-10-06T19:02:35.258Z,11.64
2022-10-06T19:05:57.122Z,11.63
2022-10-06T19:09:22.697Z,11.61
2022-10-06T19:12:44.177Z,11.59
2022-10-06T19:16:05.614Z,11.56
2022-10-06T19:19:28.687Z,11.50
2022-10-06T19:22:50.115Z,11.47
2022-10-06T19:26:13.755Z,11.39
2022-10-06T19:29:37.507Z,11.37
2022-10-06T19:32:59.270Z,11.33
2022-10-06T19:36:20.947Z,11.31
2022-10-06T19:39:45.291Z,11.28
2022-10-06T19:43:08.074Z,11.27
2022-10-06T19:46:29.537Z,11.24
2022-10-06T19:49:51.422Z,11.22
2022-10-06T19:53:12.814Z,11.18
2022-10-06T19:56:34.698Z,11.17
2022-10-06T19:59:57.472Z,11.13
2022-10-06T20:03:20.191Z,11.12
2022-10-06T20:06:42.299Z,11.09
2022-10-06T20:10:04.153Z,11.07
2022-10-06T20:13:25.796Z,11.03
2022-10-06T20:16:50.936Z,10.98
2022-10-06T20:20:13.755Z,10.94
2022-10-06T20:23:35.394Z,10.92
2022-10-06T20:26:56.911Z,10.86
2022-10-06T20:30:18.745Z,10.85
2022-10-06T20:33:43.437Z,10.82
2022-10-06T20:37:06.377Z,10.78
2022-10-06T20:40:49.103Z,10.72
2022-10-06T20:44:10.691Z,10.66
2022-10-06T20:47:32.061Z,10.58
2022-10-06T20:50:54.851Z,10.53
2022-10-06T20:54:17.341Z,10.47
2022-10-06T20:57:38.992Z,10.41
2022-10-06T21:01:06.043Z,10.38
2022-10-06T21:04:27.697Z,10.34
2022-10-06T21:07:50.607Z,10.29
2022-10-06T21:11:13.212Z,10.24
2022-10-06T21:14:36.174Z,10.17
2022-10-06T21:17:57.667Z,10.10
2022-10-06T21:21:19.326Z,10.06
2022-10-06T21:24:42.261Z,9.99
2022-10-06T21:28:04.676Z,9.94
2022-10-06T21:31:28.385Z,9.88
2022-10-06T21:34:50.318Z,9.82
2022-10-06T21:38:12.663Z,9.75
2022-10-06T21:41:38.885Z,9.68
2022-10-06T21:45:00.639Z,9.60
2022-10-06T21:48:22.147Z,9.55
2022-10-06T21:51:46.214Z,9.51
2022-10-06T21:55:08.630Z,9.48
2022-10-06T21:58:31.242Z,9.39
2022-10-06T22:01:52.723Z,9.32
2022-10-06T22:05:14.606Z,9.25
2022-10-06T22:08:38.565Z,9.20
2022-10-06T22:12:00.061Z,9.18
2022-10-06T22:15:22.815Z,9.10
2022-10-06T22:18:44.133Z,9.06
2022-10-06T22:22:05.262Z,9.01
2022-10-06T22:25:26.581Z,8.99
2022-10-06T22:28:49.652Z,8.93
2022-10-06T22:32:12.526Z,8.87
2022-10-06T22:35:33.816Z,8.86
2022-10-06T22:38:55.786Z,8.82
2022-10-06T22:42:17.368Z,8.76
2022-10-06T22:45:38.466Z,8.71
2022-10-06T22:49:01.329Z,8.68
2022-10-06T22:52:22.834Z,8.64
2022-10-06T22:55:44.314Z,8.60
2022-10-06T22:59:05.781Z,8.56
2022-10-06T23:02:27.238Z,8.50
2022-10-06T23:05:57.070Z,8.46
2022-10-06T23:09:18.412Z,8.42
2022-10-06T23:12:40.194Z,8.37
2022-10-06T23:16:07.205Z,8.33
2022-10-06T23:19:29.322Z,8.31
2022-10-06T23:22:52.008Z,8.26
2022-10-06T23:26:15.584Z,8.22
2022-10-06T23:29:37.534Z,8.18
2022-10-06T23:32:58.816Z,8.17
2022-10-06T23:36:21.426Z,8.12
2022-10-06T23:39:44.233Z,8.08
2022-10-06T23:43:05.573Z,8.06
2022-10-06T23:46:26.911Z,8.03
2022-10-06T23:49:48.497Z,7.99
2022-10-06T23:53:10.201Z,7.95
2022-10-06T23:56:32.770Z,7.91
2022-10-06T23:59:54.538Z,7.87
